sensor_id;sensor_type;location;lat;lon;timestamp;pressure;altitude;pressure_sealevel;temperature;humidity
13867;BME280;7003;46.982;15.248;2024-01-16T00:02:02;96117.91;;;-3.40;100.00
13867;BME280;7003;46.982;15.248;2024-01-16T00:04:30;96115.06;;;-3.44;100.00
13867;BME280;7003;46.982;15.248;2024-01-16T00:06:58;96113.78;;;-3.57;100.00
13867;BME280;7003;46.982;15.248;2024-01-16T00:09:28;96114.31;;;-3.60;100.00
13867;BME280;7003;46.982;15.248;2024-01-16T00:11:55;96116.38;;;-3.46;100.00
13867;BME280;7003;46.982;15.248;2024-01-16T00:14:23;96106.75;;;-3.51;100.00
13867;BME280;7003;46.982;15.248;2024-01-16T00:16:54;96117.94;;;-3.35;100.00
13867;BME280;7003;46.982;15.248;2024-01-16T00:19:24;96122.34;;;-3.31;100.00
13867;BME280;7003;46.982;15.248;2024-01-16T00:21:51;96115.84;;;-3.64;100.00
13867;BME280;7003;46.982;15.248;2024-01-16T00:24:22;96116.88;;;-3.14;100.00
13867;BME280;7003;46.982;15.248;2024-01-16T00:26:50;96119.97;;;-3.07;100.00
13867;BME280;7003;46.982;15.248;2024-01-16T00:29:19;96117.34;;;-2.92;100.00
13867;BME280;7003;46.982;15.248;2024-01-16T00:31:47;96116.00;;;-2.10;100.00
13867;BME280;7003;46.982;15.248;2024-01-16T00:34:17;96121.69;;;-1.64;100.00
13867;BME280;7003;46.982;15.248;2024-01-16T00:36:46;96115.72;;;-1.69;100.00
13867;BME280;7003;46.982;15.248;2024-01-16T00:39:15;96122.06;;;-1.80;100.00
13867;BME280;7003;46.982;15.248;2024-01-16T00:41:47;96126.88;;;-1.59;100.00
13867;BME280;7003;46.982;15.248;2024-01-16T00:44:16;96131.63;;;-1.32;100.00
13867;BME280;7003;46.982;15.248;2024-01-16T00:46:44;96127.81;;;-1.16;95.79
13867;BME280;7003;46.982;15.248;2024-01-16T00:49:14;96138.53;;;-1.17;100.00
13867;BME280;7003;46.982;15.248;2024-01-16T00:51:41;96139.00;;;-1.10;87.41
13867;BME280;7003;46.982;15.248;2024-01-16T00:54:08;96145.06;;;-0.91;79.69
13867;BME280;7003;46.982;15.248;2024-01-16T00:56:35;96152.91;;;-0.91;79.87
13867;BME280;7003;46.982;15.248;2024-01-16T00:59:04;96146.22;;;-0.73;69.77
13867;BME280;7003;46.982;15.248;2024-01-16T01:01:37;96146.44;;;-0.46;65.90
13867;BME280;7003;46.982;15.248;2024-01-16T01:04:07;96156.06;;;-0.65;70.37
13867;BME280;7003;46.982;15.248;2024-01-16T01:06:35;96159.38;;;-0.35;65.97
13867;BME280;7003;46.982;15.248;2024-01-16T01:09:02;96166.50;;;-0.41;64.32
13867;BME280;7003;46.982;15.248;2024-01-16T01:11:32;96174.63;;;-0.43;62.36
13867;BME280;7003;46.982;15.248;2024-01-16T01:14:05;96177.06;;;-0.51;65.27
13867;BME280;7003;46.982;15.248;2024-01-16T01:16:32;96183.84;;;-0.50;61.32
13867;BME280;7003;46.982;15.248;2024-01-16T01:19:00;96192.31;;;-0.34;61.03
13867;BME280;7003;46.982;15.248;2024-01-16T01:21:27;96201.69;;;-0.33;61.64
13867;BME280;7003;46.982;15.248;2024-01-16T01:23:55;96184.25;;;0.05;55.25
13867;BME280;7003;46.982;15.248;2024-01-16T01:26:22;96198.56;;;0.12;53.25
13867;BME280;7003;46.982;15.248;2024-01-16T01:28:50;96201.72;;;0.09;53.77
13867;BME280;7003;46.982;15.248;2024-01-16T01:31:22;96205.72;;;-0.17;57.69
13867;BME280;7003;46.982;15.248;2024-01-16T01:33:50;96196.47;;;0.09;54.21
13867;BME280;7003;46.982;15.248;2024-01-16T01:36:17;96211.75;;;0.02;53.57
13867;BME280;7003;46.982;15.248;2024-01-16T01:38:46;96211.16;;;0.29;52.18
13867;BME280;7003;46.982;15.248;2024-01-16T01:41:16;96210.25;;;0.38;50.45
13867;BME280;7003;46.982;15.248;2024-01-16T01:43:44;96212.56;;;0.40;50.89
13867;BME280;7003;46.982;15.248;2024-01-16T01:46:13;96201.47;;;0.29;51.25
13867;BME280;7003;46.982;15.248;2024-01-16T01:48:47;96213.25;;;0.27;51.85
13867;BME280;7003;46.982;15.248;2024-01-16T01:51:18;96215.72;;;0.18;54.09
13867;BME280;7003;46.982;15.248;2024-01-16T01:53:49;96229.31;;;0.20;52.30
13867;BME280;7003;46.982;15.248;2024-01-16T01:56:18;96232.63;;;0.26;50.20
13867;BME280;7003;46.982;15.248;2024-01-16T01:58:47;96225.34;;;0.23;52.35
13867;BME280;7003;46.982;15.248;2024-01-16T02:01:18;96234.25;;;0.41;50.93
13867;BME280;7003;46.982;15.248;2024-01-16T02:03:55;96238.81;;;0.11;52.58
13867;BME280;7003;46.982;15.248;2024-01-16T02:06:23;96232.94;;;0.00;52.21
13867;BME280;7003;46.982;15.248;2024-01-16T02:08:51;96242.50;;;0.10;51.47
13867;BME280;7003;46.982;15.248;2024-01-16T02:11:19;96242.47;;;0.15;51.93
13867;BME280;7003;46.982;15.248;2024-01-16T02:13:46;96247.72;;;-0.14;55.15
13867;BME280;7003;46.982;15.248;2024-01-16T02:16:20;96254.78;;;-0.14;53.17
13867;BME280;7003;46.982;15.248;2024-01-16T02:18:47;96259.97;;;-0.33;55.24
13867;BME280;7003;46.982;15.248;2024-01-16T02:21:18;96266.59;;;-0.17;52.64
13867;BME280;7003;46.982;15.248;2024-01-16T02:23:48;96270.41;;;-0.33;53.95
13867;BME280;7003;46.982;15.248;2024-01-16T02:26:17;96263.03;;;-0.26;52.21
13867;BME280;7003;46.982;15.248;2024-01-16T02:28:45;96263.97;;;-0.41;53.53
13867;BME280;7003;46.982;15.248;2024-01-16T02:31:12;96270.81;;;0.03;50.39
13867;BME280;7003;46.982;15.248;2024-01-16T02:33:39;96280.38;;;0.13;50.14
13867;BME280;7003;46.982;15.248;2024-01-16T02:36:09;96279.78;;;-0.03;50.53
13867;BME280;7003;46.982;15.248;2024-01-16T02:38:36;96279.88;;;0.11;49.07
13867;BME280;7003;46.982;15.248;2024-01-16T02:41:04;96284.28;;;0.15;50.15
13867;BME280;7003;46.982;15.248;2024-01-16T02:43:32;96286.94;;;0.10;51.83
13867;BME280;7003;46.982;15.248;2024-01-16T02:45:59;96293.38;;;-0.06;52.40
13867;BME280;7003;46.982;15.248;2024-01-16T02:48:26;96299.75;;;0.12;49.46
13867;BME280;7003;46.982;15.248;2024-01-16T02:50:53;96284.41;;;0.05;51.11
13867;BME280;7003;46.982;15.248;2024-01-16T02:53:23;96303.50;;;0.48;47.61
13867;BME280;7003;46.982;15.248;2024-01-16T02:55:51;96287.50;;;0.31;49.27
13867;BME280;7003;46.982;15.248;2024-01-16T02:58:22;96298.75;;;0.08;50.78
13867;BME280;7003;46.982;15.248;2024-01-16T03:00:49;96307.56;;;-0.12;51.78
13867;BME280;7003;46.982;15.248;2024-01-16T03:03:17;96303.03;;;-0.30;51.53
13867;BME280;7003;46.982;15.248;2024-01-16T03:05:47;96312.81;;;-0.12;51.76
13867;BME280;7003;46.982;15.248;2024-01-16T03:08:15;96311.31;;;-0.18;51.64
13867;BME280;7003;46.982;15.248;2024-01-16T03:10:45;96326.47;;;-0.20;52.01
13867;BME280;7003;46.982;15.248;2024-01-16T03:13:13;96315.94;;;-0.10;51.11
13867;BME280;7003;46.982;15.248;2024-01-16T03:15:44;96312.28;;;-0.14;50.97
13867;BME280;7003;46.982;15.248;2024-01-16T03:18:17;96324.22;;;-0.03;49.52
13867;BME280;7003;46.982;15.248;2024-01-16T03:20:45;96321.19;;;-0.15;50.79
13867;BME280;7003;46.982;15.248;2024-01-16T03:23:14;96329.94;;;-0.30;53.46
13867;BME280;7003;46.982;15.248;2024-01-16T03:25:43;96326.69;;;-0.46;56.81
13867;BME280;7003;46.982;15.248;2024-01-16T03:28:10;96327.56;;;-0.55;57.68
13867;BME280;7003;46.982;15.248;2024-01-16T03:30:40;96349.69;;;-0.82;57.47
13867;BME280;7003;46.982;15.248;2024-01-16T03:33:08;96341.44;;;-0.60;56.20
13867;BME280;7003;46.982;15.248;2024-01-16T03:35:36;96342.38;;;-0.85;62.74
13867;BME280;7003;46.982;15.248;2024-01-16T03:38:03;96340.66;;;-0.99;62.06
13867;BME280;7003;46.982;15.248;2024-01-16T03:40:30;96347.56;;;-1.19;66.22
13867;BME280;7003;46.982;15.248;2024-01-16T03:43:02;96351.97;;;-1.09;65.54
13867;BME280;7003;46.982;15.248;2024-01-16T03:45:33;96351.09;;;-1.48;68.28
13867;BME280;7003;46.982;15.248;2024-01-16T03:48:03;96352.81;;;-1.29;60.95
13867;BME280;7003;46.982;15.248;2024-01-16T03:50:32;96349.06;;;-1.07;55.83
13867;BME280;7003;46.982;15.248;2024-01-16T03:53:02;96357.47;;;-0.77;56.96
13867;BME280;7003;46.982;15.248;2024-01-16T03:55:33;96360.44;;;-0.88;57.91
13867;BME280;7003;46.982;15.248;2024-01-16T03:58:02;96360.53;;;-0.64;52.02
13867;BME280;7003;46.982;15.248;2024-01-16T04:00:32;96368.53;;;-0.90;58.94
13867;BME280;7003;46.982;15.248;2024-01-16T04:03:02;96363.19;;;-1.08;57.77
13867;BME280;7003;46.982;15.248;2024-01-16T04:05:33;96370.00;;;-1.23;58.04
13867;BME280;7003;46.982;15.248;2024-01-16T04:08:01;96367.00;;;-0.96;54.89
13867;BME280;7003;46.982;15.248;2024-01-16T04:10:30;96357.44;;;-1.10;55.60
13867;BME280;7003;46.982;15.248;2024-01-16T04:13:00;96363.66;;;-1.06;55.71
13867;BME280;7003;46.982;15.248;2024-01-16T04:15:29;96363.25;;;-1.29;54.80
13867;BME280;7003;46.982;15.248;2024-01-16T04:17:59;96373.22;;;-1.36;58.21
13867;BME280;7003;46.982;15.248;2024-01-16T04:20:26;96378.69;;;-1.37;60.44
13867;BME280;7003;46.982;15.248;2024-01-16T04:22:57;96379.50;;;-1.47;60.58
13867;BME280;7003;46.982;15.248;2024-01-16T04:25:24;96382.63;;;-1.40;58.55
13867;BME280;7003;46.982;15.248;2024-01-16T04:27:51;96386.63;;;-1.63;63.29
13867;BME280;7003;46.982;15.248;2024-01-16T04:30:20;96402.31;;;-1.98;67.40
13867;BME280;7003;46.982;15.248;2024-01-16T04:32:47;96400.22;;;-1.81;62.61
13867;BME280;7003;46.982;15.248;2024-01-16T04:35:15;96394.72;;;-1.84;63.17
13867;BME280;7003;46.982;15.248;2024-01-16T04:37:42;96406.50;;;-1.97;73.43
13867;BME280;7003;46.982;15.248;2024-01-16T04:40:10;96407.03;;;-2.41;77.50
13867;BME280;7003;46.982;15.248;2024-01-16T04:42:40;96409.38;;;-2.34;77.05
13867;BME280;7003;46.982;15.248;2024-01-16T04:45:08;96418.47;;;-2.37;84.26
13867;BME280;7003;46.982;15.248;2024-01-16T04:47:38;96431.50;;;-2.57;86.13
13867;BME280;7003;46.982;15.248;2024-01-16T04:50:05;96426.78;;;-2.65;85.93
13867;BME280;7003;46.982;15.248;2024-01-16T04:52:33;96437.47;;;-2.72;92.85
13867;BME280;7003;46.982;15.248;2024-01-16T04:55:03;96440.31;;;-2.73;91.55
13867;BME280;7003;46.982;15.248;2024-01-16T04:57:33;96436.41;;;-2.76;87.08
13867;BME280;7003;46.982;15.248;2024-01-16T05:00:03;96434.06;;;-2.62;74.01
13867;BME280;7003;46.982;15.248;2024-01-16T05:02:32;96436.47;;;-2.20;65.59
13867;BME280;7003;46.982;15.248;2024-01-16T05:05:00;96446.09;;;-2.41;77.21
13867;BME280;7003;46.982;15.248;2024-01-16T05:07:27;96458.53;;;-2.68;96.97
13867;BME280;7003;46.982;15.248;2024-01-16T05:09:54;96459.28;;;-2.83;99.19
13867;BME280;7003;46.982;15.248;2024-01-16T05:12:23;96458.75;;;-2.95;93.34
13867;BME280;7003;46.982;15.248;2024-01-16T05:14:52;96460.22;;;-3.09;99.20
13867;BME280;7003;46.982;15.248;2024-01-16T05:17:21;96463.88;;;-3.10;100.00
13867;BME280;7003;46.982;15.248;2024-01-16T05:19:50;96468.28;;;-3.16;100.00
13867;BME280;7003;46.982;15.248;2024-01-16T05:22:17;96475.28;;;-3.21;100.00
13867;BME280;7003;46.982;15.248;2024-01-16T05:24:44;96473.69;;;-3.22;100.00
13867;BME280;7003;46.982;15.248;2024-01-16T05:27:11;96470.97;;;-3.47;100.00
13867;BME280;7003;46.982;15.248;2024-01-16T05:29:41;96469.44;;;-3.48;100.00
13867;BME280;7003;46.982;15.248;2024-01-16T05:32:13;96471.88;;;-3.27;100.00
13867;BME280;7003;46.982;15.248;2024-01-16T05:34:40;96488.50;;;-3.28;100.00
13867;BME280;7003;46.982;15.248;2024-01-16T05:37:31;96478.53;;;-3.46;100.00
13867;BME280;7003;46.982;15.248;2024-01-16T05:39:59;96483.22;;;-3.43;100.00
13867;BME280;7003;46.982;15.248;2024-01-16T05:42:26;96478.34;;;-3.29;100.00
13867;BME280;7003;46.982;15.248;2024-01-16T05:44:55;96490.16;;;-3.59;100.00
13867;BME280;7003;46.982;15.248;2024-01-16T05:47:23;96495.31;;;-3.64;100.00
13867;BME280;7003;46.982;15.248;2024-01-16T05:49:55;96490.59;;;-3.72;100.00
13867;BME280;7003;46.982;15.248;2024-01-16T05:52:22;96497.34;;;-3.71;100.00
13867;BME280;7003;46.982;15.248;2024-01-16T05:54:49;96509.19;;;-3.48;100.00
13867;BME280;7003;46.982;15.248;2024-01-16T05:57:16;96508.19;;;-3.79;100.00
13867;BME280;7003;46.982;15.248;2024-01-16T05:59:46;96505.25;;;-3.93;100.00
13867;BME280;7003;46.982;15.248;2024-01-16T06:02:16;96507.03;;;-3.98;100.00
13867;BME280;7003;46.982;15.248;2024-01-16T06:04:47;96510.50;;;-3.88;100.00
13867;BME280;7003;46.982;15.248;2024-01-16T06:07:16;96510.41;;;-3.98;100.00
13867;BME280;7003;46.982;15.248;2024-01-16T06:09:45;96518.88;;;-4.07;100.00
13867;BME280;7003;46.982;15.248;2024-01-16T06:12:15;96519.66;;;-3.75;100.00
13867;BME280;7003;46.982;15.248;2024-01-16T06:14:43;96519.00;;;-3.92;100.00
13867;BME280;7003;46.982;15.248;2024-01-16T06:17:12;96527.50;;;-4.02;100.00
13867;BME280;7003;46.982;15.248;2024-01-16T06:19:42;96532.41;;;-4.05;100.00
13867;BME280;7003;46.982;15.248;2024-01-16T06:22:13;96537.00;;;-3.85;100.00
13867;BME280;7003;46.982;15.248;2024-01-16T06:24:40;96539.22;;;-3.99;100.00
13867;BME280;7003;46.982;15.248;2024-01-16T06:27:08;96538.50;;;-4.21;100.00
13867;BME280;7003;46.982;15.248;2024-01-16T06:29:35;96539.50;;;-4.28;100.00
13867;BME280;7003;46.982;15.248;2024-01-16T06:32:03;96540.22;;;-4.32;100.00
13867;BME280;7003;46.982;15.248;2024-01-16T06:34:33;96551.03;;;-4.40;100.00
13867;BME280;7003;46.982;15.248;2024-01-16T06:37:01;96547.41;;;-4.39;100.00
13867;BME280;7003;46.982;15.248;2024-01-16T06:39:32;96549.34;;;-4.30;100.00
13867;BME280;7003;46.982;15.248;2024-01-16T06:42:00;96544.09;;;-4.35;100.00
13867;BME280;7003;46.982;15.248;2024-01-16T06:44:30;96564.31;;;-4.37;100.00
13867;BME280;7003;46.982;15.248;2024-01-16T06:46:58;96559.63;;;-4.61;100.00
13867;BME280;7003;46.982;15.248;2024-01-16T06:49:26;96566.59;;;-4.67;100.00
13867;BME280;7003;46.982;15.248;2024-01-16T06:51:54;96566.41;;;-4.60;100.00
13867;BME280;7003;46.982;15.248;2024-01-16T06:54:25;96578.78;;;-4.68;100.00
13867;BME280;7003;46.982;15.248;2024-01-16T06:56:54;96585.72;;;-4.73;100.00
13867;BME280;7003;46.982;15.248;2024-01-16T06:59:22;96586.19;;;-4.54;100.00
13867;BME280;7003;46.982;15.248;2024-01-16T07:01:50;96587.38;;;-4.40;100.00
13867;BME280;7003;46.982;15.248;2024-01-16T07:04:20;96589.84;;;-3.75;100.00
13867;BME280;7003;46.982;15.248;2024-01-16T07:06:48;96597.47;;;-3.95;100.00
13867;BME280;7003;46.982;15.248;2024-01-16T07:09:15;96597.22;;;-4.20;100.00
13867;BME280;7003;46.982;15.248;2024-01-16T07:11:46;96605.19;;;-4.00;100.00
13867;BME280;7003;46.982;15.248;2024-01-16T07:14:15;96613.09;;;-3.90;100.00
13867;BME280;7003;46.982;15.248;2024-01-16T07:16:43;96617.41;;;-4.01;100.00
13867;BME280;7003;46.982;15.248;2024-01-16T07:19:13;96620.84;;;-3.63;100.00
13867;BME280;7003;46.982;15.248;2024-01-16T07:21:42;96621.84;;;-3.37;100.00
13867;BME280;7003;46.982;15.248;2024-01-16T07:24:11;96625.59;;;-3.23;100.00
13867;BME280;7003;46.982;15.248;2024-01-16T07:26:42;96627.13;;;-3.27;100.00
13867;BME280;7003;46.982;15.248;2024-01-16T07:29:10;96623.69;;;-3.33;100.00
13867;BME280;7003;46.982;15.248;2024-01-16T07:31:39;96637.53;;;-3.27;100.00
13867;BME280;7003;46.982;15.248;2024-01-16T07:34:10;96639.09;;;-3.26;100.00
13867;BME280;7003;46.982;15.248;2024-01-16T07:36:40;96640.81;;;-3.05;100.00
13867;BME280;7003;46.982;15.248;2024-01-16T07:39:08;96632.50;;;-3.39;100.00
13867;BME280;7003;46.982;15.248;2024-01-16T07:41:40;96643.84;;;-3.18;100.00
13867;BME280;7003;46.982;15.248;2024-01-16T07:44:08;96642.03;;;-3.18;100.00
13867;BME280;7003;46.982;15.248;2024-01-16T07:46:39;96647.53;;;-3.09;100.00
13867;BME280;7003;46.982;15.248;2024-01-16T07:49:07;96649.16;;;-3.03;100.00
13867;BME280;7003;46.982;15.248;2024-01-16T07:51:35;96656.53;;;-2.85;100.00
13867;BME280;7003;46.982;15.248;2024-01-16T07:54:07;96661.03;;;-2.75;100.00
13867;BME280;7003;46.982;15.248;2024-01-16T07:56:36;96668.22;;;-2.45;100.00
13867;BME280;7003;46.982;15.248;2024-01-16T07:59:07;96664.25;;;-1.85;100.00
13867;BME280;7003;46.982;15.248;2024-01-16T08:01:39;96667.44;;;-1.73;100.00
13867;BME280;7003;46.982;15.248;2024-01-16T08:04:09;96677.38;;;-1.30;100.00
13867;BME280;7003;46.982;15.248;2024-01-16T08:06:37;96671.66;;;-0.96;100.00
13867;BME280;7003;46.982;15.248;2024-01-16T08:09:05;96666.38;;;-0.66;100.00
13867;BME280;7003;46.982;15.248;2024-01-16T08:11:34;96676.25;;;-0.43;100.00
13867;BME280;7003;46.982;15.248;2024-01-16T08:14:03;96677.50;;;-0.25;94.99
13867;BME280;7003;46.982;15.248;2024-01-16T08:16:31;96665.34;;;0.05;85.28
13867;BME280;7003;46.982;15.248;2024-01-16T08:19:03;96660.50;;;0.32;87.39
13867;BME280;7003;46.982;15.248;2024-01-16T08:21:33;96668.47;;;0.56;80.14
13867;BME280;7003;46.982;15.248;2024-01-16T08:24:03;96668.03;;;0.44;81.04
13867;BME280;7003;46.982;15.248;2024-01-16T08:26:31;96667.16;;;0.09;73.81
13867;BME280;7003;46.982;15.248;2024-01-16T08:29:01;96676.59;;;0.05;73.55
13867;BME280;7003;46.982;15.248;2024-01-16T08:31:30;96674.22;;;0.14;75.14
13867;BME280;7003;46.982;15.248;2024-01-16T08:33:58;96662.72;;;0.54;70.63
13867;BME280;7003;46.982;15.248;2024-01-16T08:36:28;96665.91;;;1.13;67.18
13867;BME280;7003;46.982;15.248;2024-01-16T08:38:58;96670.69;;;1.06;61.31
13867;BME280;7003;46.982;15.248;2024-01-16T08:41:26;96673.47;;;1.20;61.75
13867;BME280;7003;46.982;15.248;2024-01-16T08:43:54;96669.94;;;1.59;61.42
13867;BME280;7003;46.982;15.248;2024-01-16T08:46:25;96666.75;;;1.62;61.77
13867;BME280;7003;46.982;15.248;2024-01-16T08:48:53;96667.19;;;1.45;62.91
13867;BME280;7003;46.982;15.248;2024-01-16T08:51:22;96673.31;;;1.35;60.49
13867;BME280;7003;46.982;15.248;2024-01-16T08:53:51;96671.28;;;2.22;61.07
13867;BME280;7003;46.982;15.248;2024-01-16T08:56:21;96673.53;;;2.66;61.42
13867;BME280;7003;46.982;15.248;2024-01-16T08:58:50;96670.44;;;2.97;59.96
13867;BME280;7003;46.982;15.248;2024-01-16T09:01:17;96670.00;;;3.68;56.15
13867;BME280;7003;46.982;15.248;2024-01-16T09:03:47;96675.06;;;3.92;55.50
13867;BME280;7003;46.982;15.248;2024-01-16T09:06:15;96671.00;;;4.36;53.34
13867;BME280;7003;46.982;15.248;2024-01-16T09:08:43;96671.28;;;4.48;52.85
13867;BME280;7003;46.982;15.248;2024-01-16T09:11:12;96674.13;;;4.74;51.74
13867;BME280;7003;46.982;15.248;2024-01-16T09:13:43;96677.03;;;4.86;51.30
13867;BME280;7003;46.982;15.248;2024-01-16T09:16:11;96674.56;;;4.89;49.84
13867;BME280;7003;46.982;15.248;2024-01-16T09:18:41;96672.47;;;5.00;48.98
13867;BME280;7003;46.982;15.248;2024-01-16T09:21:09;96678.13;;;5.38;45.32
13867;BME280;7003;46.982;15.248;2024-01-16T09:23:40;96667.59;;;5.77;45.74
13867;BME280;7003;46.982;15.248;2024-01-16T09:26:12;96672.72;;;5.82;46.84
13867;BME280;7003;46.982;15.248;2024-01-16T09:28:42;96676.94;;;5.53;45.67
13867;BME280;7003;46.982;15.248;2024-01-16T09:31:14;96681.28;;;5.79;46.44
13867;BME280;7003;46.982;15.248;2024-01-16T09:33:42;96677.50;;;6.03;45.64
13867;BME280;7003;46.982;15.248;2024-01-16T09:36:10;96681.59;;;6.43;43.60
13867;BME280;7003;46.982;15.248;2024-01-16T09:38:40;96673.41;;;6.79;42.21
13867;BME280;7003;46.982;15.248;2024-01-16T09:41:13;96675.22;;;7.05;40.89
13867;BME280;7003;46.982;15.248;2024-01-16T09:43:41;96673.69;;;7.04;40.70
13867;BME280;7003;46.982;15.248;2024-01-16T09:46:11;96667.13;;;7.27;40.11
13867;BME280;7003;46.982;15.248;2024-01-16T09:48:39;96669.13;;;7.39;39.16
13867;BME280;7003;46.982;15.248;2024-01-16T09:51:08;96661.34;;;7.33;40.47
13867;BME280;7003;46.982;15.248;2024-01-16T09:53:38;96660.13;;;7.22;41.69
13867;BME280;7003;46.982;15.248;2024-01-16T09:56:13;96654.84;;;7.22;42.15
13867;BME280;7003;46.982;15.248;2024-01-16T09:58:43;96654.84;;;7.22;42.56
13867;BME280;7003;46.982;15.248;2024-01-16T10:01:14;96667.66;;;6.86;44.05
13867;BME280;7003;46.982;15.248;2024-01-16T10:03:45;96668.41;;;5.87;44.89
13867;BME280;7003;46.982;15.248;2024-01-16T10:06:14;96664.03;;;5.82;44.44
13867;BME280;7003;46.982;15.248;2024-01-16T10:08:42;96667.94;;;6.58;43.46
13867;BME280;7003;46.982;15.248;2024-01-16T10:11:10;96657.66;;;7.00;40.67
13867;BME280;7003;46.982;15.248;2024-01-16T10:13:39;96654.59;;;6.72;38.66
13867;BME280;7003;46.982;15.248;2024-01-16T10:16:08;96659.16;;;7.35;38.92
13867;BME280;7003;46.982;15.248;2024-01-16T10:18:36;96650.72;;;7.51;37.87
13867;BME280;7003;46.982;15.248;2024-01-16T10:21:04;96657.34;;;7.74;37.14
13867;BME280;7003;46.982;15.248;2024-01-16T10:23:37;96648.34;;;7.11;38.06
13867;BME280;7003;46.982;15.248;2024-01-16T10:26:05;96637.91;;;7.91;36.35
13867;BME280;7003;46.982;15.248;2024-01-16T10:28:37;96639.16;;;8.23;36.88
13867;BME280;7003;46.982;15.248;2024-01-16T10:31:08;96641.38;;;8.21;37.13
13867;BME280;7003;46.982;15.248;2024-01-16T10:33:37;96644.31;;;8.48;34.58
13867;BME280;7003;46.982;15.248;2024-01-16T10:36:10;96632.59;;;8.70;33.56
13867;BME280;7003;46.982;15.248;2024-01-16T10:38:41;96636.03;;;8.71;33.25
13867;BME280;7003;46.982;15.248;2024-01-16T10:41:10;96640.91;;;8.19;33.50
13867;BME280;7003;46.982;15.248;2024-01-16T10:43:41;96634.03;;;9.01;33.35
13867;BME280;7003;46.982;15.248;2024-01-16T10:46:15;96639.84;;;8.61;31.41
13867;BME280;7003;46.982;15.248;2024-01-16T10:48:43;96635.41;;;9.52;34.27
13867;BME280;7003;46.982;15.248;2024-01-16T10:51:14;96633.97;;;9.67;32.31
13867;BME280;7003;46.982;15.248;2024-01-16T10:53:44;96620.25;;;9.77;30.50
13867;BME280;7003;46.982;15.248;2024-01-16T10:56:12;96618.00;;;10.39;30.42
13867;BME280;7003;46.982;15.248;2024-01-16T10:58:42;96613.00;;;10.50;29.04
13867;BME280;7003;46.982;15.248;2024-01-16T11:01:15;96614.56;;;10.79;29.77
13867;BME280;7003;46.982;15.248;2024-01-16T11:03:46;96614.63;;;10.67;28.35
13867;BME280;7003;46.982;15.248;2024-01-16T11:06:17;96610.59;;;11.01;27.62
13867;BME280;7003;46.982;15.248;2024-01-16T11:08:46;96616.19;;;9.10;31.25
13867;BME280;7003;46.982;15.248;2024-01-16T11:11:14;96612.81;;;10.31;30.68
13867;BME280;7003;46.982;15.248;2024-01-16T11:13:45;96606.78;;;11.30;30.94
13867;BME280;7003;46.982;15.248;2024-01-16T11:16:18;96606.75;;;10.18;29.05
13867;BME280;7003;46.982;15.248;2024-01-16T11:18:49;96604.31;;;9.77;29.64
13867;BME280;7003;46.982;15.248;2024-01-16T11:21:17;96605.06;;;8.63;31.77
13867;BME280;7003;46.982;15.248;2024-01-16T11:23:45;96595.56;;;8.41;31.85
13867;BME280;7003;46.982;15.248;2024-01-16T11:26:26;96598.66;;;9.54;29.20
13867;BME280;7003;46.982;15.248;2024-01-16T11:28:57;96598.13;;;9.48;30.99
13867;BME280;7003;46.982;15.248;2024-01-16T11:31:30;96588.75;;;10.39;29.46
13867;BME280;7003;46.982;15.248;2024-01-16T11:33:59;96591.59;;;8.68;29.22
13867;BME280;7003;46.982;15.248;2024-01-16T11:36:48;96591.69;;;8.92;29.25
13867;BME280;7003;46.982;15.248;2024-01-16T11:39:18;96596.44;;;7.74;31.57
13867;BME280;7003;46.982;15.248;2024-01-16T11:41:51;96590.06;;;8.67;30.41
13867;BME280;7003;46.982;15.248;2024-01-16T11:44:40;96589.13;;;8.00;31.60
13867;BME280;7003;46.982;15.248;2024-01-16T11:47:16;96582.94;;;8.79;30.91
13867;BME280;7003;46.982;15.248;2024-01-16T11:49:44;96584.59;;;8.01;30.37
13867;BME280;7003;46.982;15.248;2024-01-16T11:52:11;96576.66;;;9.53;30.79
13867;BME280;7003;46.982;15.248;2024-01-16T11:54:40;96574.97;;;10.22;28.59
13867;BME280;7003;46.982;15.248;2024-01-16T11:57:36;96564.03;;;8.81;29.92
13867;BME280;7003;46.982;15.248;2024-01-16T12:00:19;96554.28;;;9.18;31.60
13867;BME280;7003;46.982;15.248;2024-01-16T12:02:52;96556.47;;;10.13;29.66
13867;BME280;7003;46.982;15.248;2024-01-16T12:05:21;96543.38;;;10.32;29.98
13867;BME280;7003;46.982;15.248;2024-01-16T12:07:50;96534.66;;;10.08;29.18
13867;BME280;7003;46.982;15.248;2024-01-16T12:10:19;96541.47;;;9.81;31.71
13867;BME280;7003;46.982;15.248;2024-01-16T12:12:51;96537.22;;;9.92;31.08
13867;BME280;7003;46.982;15.248;2024-01-16T12:15:22;96540.34;;;9.94;29.02
13867;BME280;7003;46.982;15.248;2024-01-16T12:17:58;96537.38;;;9.22;30.92
13867;BME280;7003;46.982;15.248;2024-01-16T12:20:28;96530.47;;;10.19;30.04
13867;BME280;7003;46.982;15.248;2024-01-16T12:22:58;96528.53;;;9.31;28.95
13867;BME280;7003;46.982;15.248;2024-01-16T12:25:28;96527.00;;;8.19;30.74
13867;BME280;7003;46.982;15.248;2024-01-16T12:27:59;96520.69;;;8.44;32.88
13867;BME280;7003;46.982;15.248;2024-01-16T12:30:29;96508.41;;;9.66;30.45
13867;BME280;7003;46.982;15.248;2024-01-16T12:33:06;96512.25;;;10.33;30.44
13867;BME280;7003;46.982;15.248;2024-01-16T12:35:35;96514.00;;;10.85;30.27
13867;BME280;7003;46.982;15.248;2024-01-16T12:38:11;96508.22;;;10.39;28.87
13867;BME280;7003;46.982;15.248;2024-01-16T12:40:40;96508.53;;;10.50;29.40
13867;BME280;7003;46.982;15.248;2024-01-16T12:43:11;96503.88;;;10.19;30.84
13867;BME280;7003;46.982;15.248;2024-01-16T12:45:42;96516.47;;;9.09;30.22
13867;BME280;7003;46.982;15.248;2024-01-16T12:48:12;96514.00;;;8.92;31.09
13867;BME280;7003;46.982;15.248;2024-01-16T12:50:43;96508.03;;;8.95;30.86
13867;BME280;7003;46.982;15.248;2024-01-16T12:53:11;96497.44;;;8.95;31.28
13867;BME280;7003;46.982;15.248;2024-01-16T12:55:42;96501.41;;;8.43;32.26
13867;BME280;7003;46.982;15.248;2024-01-16T12:58:14;96501.88;;;8.58;32.07
13867;BME280;7003;46.982;15.248;2024-01-16T13:00:42;96500.97;;;8.54;31.16
13867;BME280;7003;46.982;15.248;2024-01-16T13:03:17;96497.00;;;8.27;32.50
13867;BME280;7003;46.982;15.248;2024-01-16T13:05:46;96487.97;;;8.28;32.16
13867;BME280;7003;46.982;15.248;2024-01-16T13:08:24;96487.38;;;8.01;32.27
13867;BME280;7003;46.982;15.248;2024-01-16T13:11:02;96491.44;;;7.99;32.95
13867;BME280;7003;46.982;15.248;2024-01-16T13:13:30;96490.41;;;7.70;32.60
13867;BME280;7003;46.982;15.248;2024-01-16T13:16:02;96490.00;;;7.60;33.12